createdAt,value
2023-05-17T00:01:45.764Z,65.33
2023-05-17T00:04:12.610Z,64.87
2023-05-17T00:06:39.280Z,65.28
2023-05-17T00:09:06.021Z,65.16
2023-05-17T00:11:32.662Z,64.85
2023-05-17T00:13:59.329Z,65.44
2023-05-17T00:16:25.951Z,66.42
2023-05-17T00:18:52.822Z,67.00
2023-05-17T00:21:19.558Z,67.22
2023-05-17T00:23:46.314Z,67.23
2023-05-17T00:26:12.986Z,66.82
2023-05-17T00:28:39.969Z,67.34
2023-05-17T00:31:06.669Z,66.53
2023-05-17T00:33:33.408Z,66.78
2023-05-17T00:36:00.044Z,67.29
2023-05-17T00:38:26.710Z,67.53
2023-05-17T00:40:53.320Z,67.02
2023-05-17T00:43:19.915Z,66.67
2023-05-17T00:45:46.672Z,66.64
2023-05-17T00:48:13.659Z,67.15
2023-05-17T00:50:40.994Z,67.84
2023-05-17T00:53:09.371Z,68.15
2023-05-17T00:55:36.041Z,67.54
2023-05-17T00:58:02.721Z,68.85
2023-05-17T01:00:29.392Z,68.54
2023-05-17T01:02:56.179Z,68.82
2023-05-17T01:05:23.066Z,69.17
2023-05-17T01:07:49.745Z,69.38
2023-05-17T01:10:16.421Z,69.44
2023-05-17T01:12:55.343Z,69.35
2023-05-17T01:15:28.645Z,68.96
2023-05-17T01:18:23.854Z,67.51
2023-05-17T01:20:52.778Z,69.31
2023-05-17T01:23:42.185Z,67.29
2023-05-17T01:26:18.460Z,67.84
2023-05-17T01:28:52.560Z,68.37
2023-05-17T01:31:20.447Z,69.79
2023-05-17T01:33:47.846Z,70.10
2023-05-17T01:36:14.695Z,69.86
2023-05-17T01:38:41.664Z,69.94
2023-05-17T01:41:15.670Z,68.28
2023-05-17T01:44:00.313Z,69.90
2023-05-17T01:46:33.216Z,68.13
2023-05-17T01:49:21.593Z,69.93
2023-05-17T01:51:57.559Z,69.22
2023-05-17T01:54:31.718Z,68.18
2023-05-17T01:56:59.375Z,69.56
2023-05-17T01:59:27.702Z,69.42
2023-05-17T02:01:58.872Z,69.13
2023-05-17T02:04:25.668Z,69.83
2023-05-17T02:06:52.710Z,69.76
2023-05-17T02:09:19.383Z,70.01
2023-05-17T02:11:46.132Z,69.84
2023-05-17T02:14:12.870Z,69.90
2023-05-17T02:16:40.144Z,70.07
2023-05-17T02:19:06.796Z,69.67
2023-05-17T02:21:33.414Z,69.36
2023-05-17T02:24:00.151Z,69.18
2023-05-17T02:26:26.848Z,68.90
2023-05-17T02:28:54.024Z,69.07
2023-05-17T02:31:21.022Z,69.50
2023-05-17T02:33:49.517Z,69.68
2023-05-17T02:36:16.235Z,69.97
2023-05-17T02:38:42.900Z,69.57
2023-05-17T02:41:09.701Z,69.72
2023-05-17T02:43:36.373Z,70.09
2023-05-17T02:46:03.992Z,70.29
2023-05-17T02:48:30.685Z,70.44
2023-05-17T02:50:57.253Z,70.41
2023-05-17T02:53:24.111Z,70.54
2023-05-17T02:55:50.834Z,70.38
2023-05-17T02:58:17.452Z,70.35
2023-05-17T03:00:46.721Z,69.42
2023-05-17T03:03:14.940Z,70.63
2023-05-17T03:05:41.732Z,70.81
2023-05-17T03:08:09.016Z,70.96
2023-05-17T03:10:36.220Z,71.21
2023-05-17T03:13:03.244Z,71.29
2023-05-17T03:15:34.605Z,71.42
2023-05-17T03:18:01.473Z,71.49
2023-05-17T03:20:28.840Z,71.68
2023-05-17T03:22:56.262Z,71.72
2023-05-17T03:25:22.950Z,71.77
2023-05-17T03:27:50.147Z,71.56
2023-05-17T03:30:16.992Z,71.49
2023-05-17T03:32:45.505Z,68.82
2023-05-17T03:35:12.178Z,71.10
2023-05-17T03:37:43.263Z,70.85
2023-05-17T03:40:10.405Z,70.88
2023-05-17T03:42:37.091Z,70.73
2023-05-17T03:45:05.445Z,70.59
2023-05-17T03:47:32.330Z,70.63
2023-05-17T03:49:59.471Z,69.96
2023-05-17T03:52:26.227Z,70.15
2023-05-17T03:54:53.017Z,70.25
2023-05-17T03:57:19.918Z,70.03
2023-05-17T03:59:46.591Z,70.11
2023-05-17T04:02:16.060Z,69.98
2023-05-17T04:04:49.251Z,68.12
2023-05-17T04:07:17.662Z,70.32
2023-05-17T04:09:44.783Z,70.47
2023-05-17T04:12:11.454Z,70.14
2023-05-17T04:14:38.866Z,70.12
2023-05-17T04:17:05.629Z,69.82
2023-05-17T04:19:32.867Z,69.88
2023-05-17T04:22:00.608Z,69.54
2023-05-17T04:24:27.745Z,69.51
2023-05-17T04:26:54.994Z,69.39
2023-05-17T04:29:24.516Z,69.42
2023-05-17T04:31:51.453Z,69.54
2023-05-17T04:34:18.363Z,69.79
2023-05-17T04:36:45.638Z,69.60
2023-05-17T04:39:12.479Z,69.41
2023-05-17T04:41:39.832Z,68.24
2023-05-17T04:44:10.276Z,68.28
2023-05-17T04:46:37.129Z,68.58
2023-05-17T04:49:04.132Z,68.34
2023-05-17T04:51:31.236Z,68.48
2023-05-17T04:53:58.250Z,68.74
2023-05-17T04:56:25.227Z,69.02
2023-05-17T04:58:53.004Z,68.92
2023-05-17T05:01:20.431Z,67.38
2023-05-17T05:03:50.142Z,69.36
2023-05-17T05:06:17.310Z,69.77
2023-05-17T05:08:44.435Z,69.78
2023-05-17T05:11:12.364Z,69.49
2023-05-17T05:13:39.210Z,69.34
2023-05-17T05:16:07.173Z,69.58
2023-05-17T05:18:34.981Z,69.65
2023-05-17T05:21:02.141Z,69.66
2023-05-17T05:23:30.117Z,69.76
2023-05-17T05:25:56.854Z,69.48
2023-05-17T05:28:23.526Z,68.94
2023-05-17T05:30:50.187Z,68.95
2023-05-17T05:33:17.189Z,69.03
2023-05-17T05:35:45.619Z,69.20
2023-05-17T05:38:12.249Z,69.42
2023-05-17T05:40:39.515Z,69.59
2023-05-17T05:43:06.155Z,69.86
2023-05-17T05:45:32.779Z,69.98
2023-05-17T05:48:02.582Z,70.25
2023-05-17T05:50:29.721Z,70.06
2023-05-17T05:53:10.990Z,69.66
2023-05-17T05:55:42.623Z,69.69
2023-05-17T05:58:09.994Z,70.00
2023-05-17T06:00:38.114Z,70.44
2023-05-17T06:03:05.429Z,69.74
2023-05-17T06:05:32.311Z,69.69
2023-05-17T06:07:59.123Z,69.49
2023-05-17T06:10:25.829Z,69.15
2023-05-17T06:12:52.516Z,69.02
2023-05-17T06:15:19.204Z,69.09
2023-05-17T06:17:46.080Z,69.02
2023-05-17T06:20:13.048Z,69.02
2023-05-17T06:22:39.725Z,68.88
2023-05-17T06:25:06.582Z,68.80
2023-05-17T06:27:33.300Z,69.10
2023-05-17T06:30:00.189Z,68.89
2023-05-17T06:32:26.906Z,68.34
2023-05-17T06:34:53.547Z,68.34
2023-05-17T06:37:20.317Z,68.33
2023-05-17T06:39:55.875Z,67.73
2023-05-17T06:42:26.697Z,67.56
2023-05-17T06:44:53.273Z,67.01
2023-05-17T06:47:20.058Z,66.27
2023-05-17T06:49:46.714Z,65.93
2023-05-17T06:52:13.486Z,64.95
2023-05-17T06:54:40.123Z,64.41
2023-05-17T06:57:06.818Z,65.47
2023-05-17T06:59:33.535Z,66.28
2023-05-17T07:02:00.201Z,66.37
2023-05-17T07:04:27.347Z,66.71
2023-05-17T07:06:54.153Z,66.64
2023-05-17T07:09:21.375Z,65.92
2023-05-17T07:11:48.515Z,66.50
2023-05-17T07:14:15.260Z,66.91
2023-05-17T07:16:41.898Z,65.89
2023-05-17T07:19:08.717Z,66.20
2023-05-17T07:21:35.396Z,66.91
2023-05-17T07:24:02.067Z,67.27
2023-05-17T07:26:28.780Z,67.23
2023-05-17T07:28:55.374Z,67.26
2023-05-17T07:31:22.067Z,66.40
2023-05-17T07:33:49.012Z,66.22
2023-05-17T07:36:15.734Z,65.79
2023-05-17T07:38:42.453Z,65.76
2023-05-17T07:41:09.540Z,65.65
2023-05-17T07:43:39.086Z,61.00
2023-05-17T07:46:05.947Z,63.40
2023-05-17T07:48:32.829Z,64.13
2023-05-17T07:50:59.537Z,64.77
2023-05-17T07:53:26.165Z,62.02
2023-05-17T07:55:52.764Z,63.21
2023-05-17T07:58:19.591Z,64.47
2023-05-17T08:00:46.260Z,64.90
2023-05-17T08:03:14.587Z,64.64
2023-05-17T08:05:43.251Z,62.01
2023-05-17T08:08:09.924Z,62.07
2023-05-17T08:10:36.661Z,63.36
2023-05-17T08:13:04.196Z,63.96
2023-05-17T08:15:31.063Z,64.26
2023-05-17T08:17:58.012Z,63.78
2023-05-17T08:20:24.776Z,64.38
2023-05-17T08:22:51.391Z,63.01
2023-05-17T08:25:19.997Z,62.39
2023-05-17T08:27:46.625Z,64.16
2023-05-17T08:30:15.184Z,63.89
2023-05-17T08:32:48.459Z,61.96
2023-05-17T08:35:15.217Z,62.31
2023-05-17T08:37:41.809Z,62.72
2023-05-17T08:40:09.083Z,62.79
2023-05-17T08:42:37.162Z,59.50
2023-05-17T08:45:05.832Z,61.18
2023-05-17T08:47:33.309Z,59.70
2023-05-17T08:50:00.052Z,60.81
2023-05-17T08:52:30.325Z,59.62
2023-05-17T08:54:57.130Z,61.68
2023-05-17T08:57:25.307Z,61.46
2023-05-17T08:59:52.675Z,63.09
2023-05-17T09:02:19.802Z,64.24
2023-05-17T09:04:47.075Z,64.52
2023-05-17T09:07:15.216Z,65.42
2023-05-17T09:09:43.257Z,63.86
2023-05-17T09:12:09.928Z,61.66
2023-05-17T09:14:36.595Z,62.26
2023-05-17T09:17:03.290Z,60.34
2023-05-17T09:19:30.934Z,60.10
2023-05-17T09:22:00.705Z,59.21
2023-05-17T09:24:29.177Z,61.13
2023-05-17T09:27:04.067Z,58.44
2023-05-17T09:29:32.706Z,62.10
2023-05-17T09:32:19.060Z,55.82
2023-05-17T09:34:46.983Z,61.95
2023-05-17T09:37:15.440Z,62.86
2023-05-17T09:39:43.569Z,62.98
2023-05-17T09:42:10.355Z,59.03
2023-05-17T09:44:48.076Z,57.24
2023-05-17T09:47:28.503Z,58.30
2023-05-17T09:49:59.892Z,57.53
2023-05-17T09:52:27.210Z,61.14
2023-05-17T09:54:55.786Z,61.53
2023-05-17T09:57:22.912Z,61.20
2023-05-17T09:59:50.559Z,60.30
2023-05-17T10:02:22.837Z,55.92
2023-05-17T10:04:50.856Z,60.48
2023-05-17T10:07:21.292Z,56.96
2023-05-17T10:09:48.945Z,58.01
2023-05-17T10:12:18.385Z,55.42
2023-05-17T10:14:45.654Z,55.94
2023-05-17T10:17:12.926Z,56.68
2023-05-17T10:19:40.471Z,57.65
2023-05-17T10:22:21.687Z,57.16
2023-05-17T10:24:51.153Z,57.64
2023-05-17T10:27:18.242Z,57.21
2023-05-17T10:29:47.715Z,58.51
2023-05-17T10:32:16.652Z,59.66
2023-05-17T10:34:45.740Z,58.30
2023-05-17T10:37:14.251Z,56.47
2023-05-17T10:39:41.442Z,55.42
2023-05-17T10:42:14.748Z,57.54
2023-05-17T10:44:42.692Z,57.79
2023-05-17T10:47:10.573Z,56.59
2023-05-17T10:49:38.898Z,57.81
2023-05-17T10:52:21.301Z,52.35
2023-05-17T10:54:49.272Z,53.36
2023-05-17T10:57:21.521Z,53.45
2023-05-17T10:59:59.506Z,48.97
2023-05-17T11:02:28.139Z,51.48
2023-05-17T11:04:55.374Z,52.99
2023-05-17T11:07:26.401Z,54.79
2023-05-17T11:10:20.638Z,50.35
2023-05-17T11:12:48.189Z,54.43
2023-05-17T11:15:16.979Z,55.52
2023-05-17T11:17:43.608Z,53.82
2023-05-17T11:20:31.677Z,50.71
2023-05-17T11:23:17.129Z,47.85
2023-05-17T11:25:45.388Z,47.49
2023-05-17T11:28:20.099Z,46.72
2023-05-17T11:30:46.928Z,51.01
2023-05-17T11:33:25.331Z,45.75
2023-05-17T11:35:56.800Z,49.81
2023-05-17T11:38:27.450Z,51.75
2023-05-17T11:40:55.512Z,52.91
2023-05-17T11:43:24.250Z,52.82
2023-05-17T11:45:58.962Z,46.84
2023-05-17T11:48:26.612Z,51.99
2023-05-17T11:50:55.824Z,52.85
2023-05-17T11:53:24.434Z,51.85
2023-05-17T11:55:52.781Z,46.87
2023-05-17T11:58:26.610Z,44.52
2023-05-17T12:00:55.392Z,48.71
2023-05-17T12:03:27.669Z,45.14
2023-05-17T12:06:09.696Z,45.91
2023-05-17T12:08:38.777Z,46.52
2023-05-17T12:11:07.084Z,47.63
2023-05-17T12:13:35.005Z,46.26
2023-05-17T12:16:03.743Z,48.85
2023-05-17T12:18:41.144Z,46.25
2023-05-17T12:21:09.039Z,46.01
2023-05-17T12:23:38.023Z,46.89
2023-05-17T12:26:18.560Z,47.17
2023-05-17T12:28:54.426Z,50.49
2023-05-17T12:31:26.880Z,50.47
2023-05-17T12:33:54.463Z,50.67
2023-05-17T12:36:22.258Z,51.08
2023-05-17T12:38:49.352Z,51.91
2023-05-17T12:41:16.703Z,51.53
2023-05-17T12:43:46.274Z,47.78
2023-05-17T12:46:20.203Z,49.31
2023-05-17T12:48:48.188Z,51.30
2023-05-17T12:51:17.402Z,51.40
2023-05-17T12:53:45.121Z,49.21
2023-05-17T12:56:17.615Z,48.89
2023-05-17T12:58:45.100Z,50.43
2023-05-17T13:01:11.935Z,50.03
2023-05-17T13:03:38.798Z,50.68
2023-05-17T13:06:07.270Z,50.54
2023-05-17T13:08:34.515Z,49.66
2023-05-17T13:11:14.631Z,49.07
2023-05-17T13:13:42.256Z,49.13
2023-05-17T13:16:08.891Z,51.73
2023-05-17T13:18:49.089Z,48.71
2023-05-17T13:21:17.788Z,51.31
2023-05-17T13:23:46.524Z,52.04
2023-05-17T13:26:13.376Z,53.33
2023-05-17T13:28:40.291Z,54.31
2023-05-17T13:31:07.103Z,54.87
2023-05-17T13:33:33.759Z,46.84
2023-05-17T13:36:00.537Z,45.90
2023-05-17T13:38:27.122Z,48.08
2023-05-17T13:40:54.400Z,50.71
2023-05-17T13:43:21.143Z,51.75
2023-05-17T13:45:47.744Z,47.95
2023-05-17T13:48:14.659Z,49.62
2023-05-17T13:50:41.343Z,51.15
2023-05-17T13:53:07.936Z,52.20
2023-05-17T13:55:34.658Z,51.44
2023-05-17T13:58:01.331Z,49.32
2023-05-17T14:00:28.183Z,49.27
2023-05-17T14:02:55.151Z,40.53
2023-05-17T14:05:21.914Z,39.67
2023-05-17T14:07:48.507Z,42.38
2023-05-17T14:10:15.316Z,43.43
2023-05-17T14:12:41.936Z,43.93
2023-05-17T14:15:09.701Z,43.97
2023-05-17T14:17:36.395Z,40.68
2023-05-17T14:20:03.614Z,43.31
2023-05-17T14:22:30.499Z,43.10
2023-05-17T14:24:57.143Z,40.79
2023-05-17T14:27:23.891Z,43.91
2023-05-17T14:29:50.671Z,46.28
2023-05-17T14:32:17.345Z,45.97
2023-05-17T14:34:44.972Z,43.20
2023-05-17T14:37:11.605Z,45.17
2023-05-17T14:39:38.264Z,45.16
2023-05-17T14:42:05.223Z,44.30
2023-05-17T14:44:31.869Z,42.17
2023-05-17T14:46:58.705Z,41.59
2023-05-17T14:49:25.440Z,41.13
2023-05-17T14:51:52.045Z,42.54
2023-05-17T14:54:18.776Z,43.25
2023-05-17T14:56:45.423Z,43.42
2023-05-17T14:59:12.187Z,44.78
2023-05-17T15:01:38.940Z,46.32
2023-05-17T15:04:05.619Z,45.46
2023-05-17T15:06:32.571Z,47.14
2023-05-17T15:08:59.286Z,41.83
2023-05-17T15:11:26.060Z,44.65
2023-05-17T15:13:52.818Z,41.65
2023-05-17T15:16:19.607Z,43.87
2023-05-17T15:18:46.864Z,46.01
2023-05-17T15:21:13.511Z,47.32
2023-05-17T15:23:40.193Z,48.10
2023-05-17T15:26:06.843Z,48.77
2023-05-17T15:28:33.518Z,49.57
2023-05-17T15:31:04.439Z,50.66
2023-05-17T15:33:31.141Z,51.67
2023-05-17T15:35:58.412Z,51.22
2023-05-17T15:38:25.179Z,51.48
2023-05-17T15:41:15.716Z,44.07
2023-05-17T15:43:43.009Z,50.70
2023-05-17T15:46:09.674Z,51.10
2023-05-17T15:48:36.428Z,51.60
2023-05-17T15:51:03.275Z,51.07
2023-05-17T15:53:30.651Z,51.74
2023-05-17T15:55:57.272Z,51.39
2023-05-17T15:58:25.687Z,49.80
2023-05-17T16:00:52.492Z,52.38
2023-05-17T16:03:19.420Z,53.29
2023-05-17T16:05:46.069Z,52.20
2023-05-17T16:08:12.809Z,52.30
2023-05-17T16:10:39.429Z,53.58
2023-05-17T16:13:06.354Z,53.53
2023-05-17T16:15:35.971Z,53.94
2023-05-17T16:18:02.621Z,53.70
2023-05-17T16:20:29.564Z,53.75
2023-05-17T16:22:56.352Z,53.38
2023-05-17T16:25:24.626Z,53.74
2023-05-17T16:27:51.481Z,45.94
2023-05-17T16:30:18.815Z,52.66
2023-05-17T16:32:46.439Z,52.35
2023-05-17T16:35:13.254Z,54.15
2023-05-17T16:37:40.351Z,54.96
2023-05-17T16:40:07.925Z,55.50
2023-05-17T16:42:34.600Z,53.36
2023-05-17T16:45:01.207Z,53.54
2023-05-17T16:47:28.044Z,54.79
2023-05-17T16:49:55.067Z,54.31
2023-05-17T16:52:21.968Z,54.95
2023-05-17T16:54:48.878Z,55.91
2023-05-17T16:57:16.132Z,55.18
2023-05-17T16:59:42.768Z,54.87
2023-05-17T17:02:09.622Z,54.93
2023-05-17T17:04:36.382Z,56.47
2023-05-17T17:07:03.418Z,55.99
2023-05-17T17:09:30.120Z,55.49
2023-05-17T17:11:56.810Z,56.09
2023-05-17T17:14:23.564Z,56.44
2023-05-17T17:16:50.171Z,56.64
2023-05-17T17:19:16.814Z,56.81
2023-05-17T17:21:43.546Z,57.19
2023-05-17T17:24:10.167Z,55.75
2023-05-17T17:26:36.796Z,56.05
2023-05-17T17:29:04.554Z,55.70
2023-05-17T17:31:34.288Z,52.19
2023-05-17T17:34:01.045Z,54.77
2023-05-17T17:36:27.764Z,54.91
2023-05-17T17:38:54.369Z,55.31
2023-05-17T17:41:21.053Z,52.95
2023-05-17T17:43:47.789Z,53.65
2023-05-17T17:46:14.384Z,51.91
2023-05-17T17:48:42.017Z,52.07
2023-05-17T17:51:08.609Z,51.27
2023-05-17T17:53:35.311Z,51.70
2023-05-17T17:56:01.926Z,51.43
2023-05-17T17:58:28.599Z,50.50
2023-05-17T18:00:55.461Z,49.80
2023-05-17T18:03:22.197Z,50.36
2023-05-17T18:05:48.811Z,51.48
2023-05-17T18:08:15.596Z,52.15
2023-05-17T18:10:42.362Z,52.96
2023-05-17T18:13:09.055Z,52.84
2023-05-17T18:15:35.726Z,47.11
2023-05-17T18:18:02.509Z,48.61
2023-05-17T18:20:29.472Z,47.28
2023-05-17T18:22:56.300Z,48.19
2023-05-17T18:25:22.983Z,46.98
2023-05-17T18:27:49.696Z,44.71
2023-05-17T18:30:17.350Z,46.66
2023-05-17T18:32:44.737Z,48.39
2023-05-17T18:35:11.616Z,50.06
2023-05-17T18:37:38.323Z,51.00
2023-05-17T18:40:05.512Z,51.69
2023-05-17T18:42:32.271Z,51.85
2023-05-17T18:44:58.863Z,52.38
2023-05-17T18:47:25.743Z,51.79
2023-05-17T18:49:52.597Z,50.93
2023-05-17T18:52:19.413Z,50.50
2023-05-17T18:54:46.038Z,51.51
2023-05-17T18:57:12.655Z,50.83
2023-05-17T18:59:39.498Z,51.15
2023-05-17T19:02:06.141Z,51.45
2023-05-17T19:04:32.984Z,52.24
2023-05-17T19:06:59.838Z,52.74
2023-05-17T19:09:26.507Z,51.50
2023-05-17T19:11:54.213Z,51.32
2023-05-17T19:14:20.909Z,52.70
2023-05-17T19:16:47.616Z,52.48
2023-05-17T19:19:14.265Z,50.24
2023-05-17T19:21:41.138Z,50.76
2023-05-17T19:24:07.875Z,52.42
2023-05-17T19:26:34.659Z,52.18
2023-05-17T19:29:01.369Z,52.70
2023-05-17T19:31:28.020Z,51.28
2023-05-17T19:33:54.873Z,52.69
2023-05-17T19:36:21.463Z,53.73
2023-05-17T19:38:49.944Z,53.04
2023-05-17T19:41:18.697Z,53.89
2023-05-17T19:43:45.454Z,53.22
2023-05-17T19:46:12.136Z,53.68
2023-05-17T19:48:38.900Z,53.63
2023-05-17T19:51:05.768Z,54.92
2023-05-17T19:53:43.895Z,55.60
2023-05-17T19:56:17.969Z,56.42
2023-05-17T19:58:44.584Z,57.19
2023-05-17T20:01:11.182Z,57.55
2023-05-17T20:03:37.896Z,57.49
2023-05-17T20:06:04.776Z,56.82
2023-05-17T20:08:31.368Z,57.59
2023-05-17T20:10:58.062Z,56.19
2023-05-17T20:13:24.809Z,56.44
2023-05-17T20:15:51.497Z,55.87
2023-05-17T20:18:18.088Z,55.50
2023-05-17T20:20:44.748Z,56.45
2023-05-17T20:23:11.643Z,56.46
2023-05-17T20:25:38.255Z,57.02
2023-05-17T20:28:04.920Z,56.89
2023-05-17T20:30:31.742Z,57.69
2023-05-17T20:32:58.616Z,57.87
2023-05-17T20:35:25.271Z,58.13
2023-05-17T20:37:52.321Z,58.53
2023-05-17T20:40:19.726Z,58.91
2023-05-17T20:42:46.326Z,59.44
2023-05-17T20:45:14.657Z,59.43
2023-05-17T20:47:41.516Z,59.35
2023-05-17T20:50:09.059Z,59.79
2023-05-17T20:52:39.298Z,60.29
2023-05-17T20:55:08.736Z,59.95
2023-05-17T20:57:35.477Z,60.55
2023-05-17T21:00:02.273Z,60.67
2023-05-17T21:02:28.953Z,60.76
2023-05-17T21:04:55.765Z,60.98
2023-05-17T21:07:22.569Z,60.85
2023-05-17T21:09:49.218Z,61.03
2023-05-17T21:12:15.823Z,61.19
2023-05-17T21:14:42.420Z,61.34
2023-05-17T21:17:09.008Z,61.33
2023-05-17T21:19:35.643Z,61.29
2023-05-17T21:22:02.412Z,61.25
2023-05-17T21:24:29.030Z,61.32
2023-05-17T21:26:55.731Z,61.47
2023-05-17T21:29:22.485Z,61.38
2023-05-17T21:31:49.228Z,61.53
2023-05-17T21:34:15.981Z,61.32
2023-05-17T21:36:42.659Z,61.40
2023-05-17T21:39:09.375Z,61.52
2023-05-17T21:41:36.075Z,61.47
2023-05-17T21:44:02.940Z,61.22
2023-05-17T21:46:29.633Z,61.10
2023-05-17T21:48:56.364Z,60.80
2023-05-17T21:51:23.038Z,60.80
2023-05-17T21:53:49.648Z,60.88
2023-05-17T21:56:16.335Z,60.73
2023-05-17T21:58:43.155Z,60.23
2023-05-17T22:01:09.943Z,60.41
2023-05-17T22:03:36.669Z,60.31
2023-05-17T22:06:03.544Z,60.48
2023-05-17T22:08:30.238Z,60.64
2023-05-17T22:10:56.935Z,60.73
2023-05-17T22:13:23.616Z,60.83
2023-05-17T22:15:50.334Z,61.08
2023-05-17T22:18:17.253Z,61.26
2023-05-17T22:20:44.113Z,61.38
2023-05-17T22:23:10.855Z,61.46
2023-05-17T22:25:37.801Z,61.46
2023-05-17T22:28:04.453Z,61.55
2023-05-17T22:30:31.422Z,61.35
2023-05-17T22:32:58.534Z,61.37
2023-05-17T22:35:25.347Z,61.29
2023-05-17T22:37:52.003Z,61.12
2023-05-17T22:40:19.010Z,61.21
2023-05-17T22:42:45.780Z,60.92
2023-05-17T22:45:12.542Z,60.88
2023-05-17T22:47:39.293Z,60.71
2023-05-17T22:50:06.426Z,60.60
2023-05-17T22:52:33.103Z,60.65
2023-05-17T22:54:59.696Z,60.51
2023-05-17T22:57:26.403Z,60.46
2023-05-17T22:59:53.169Z,60.48
2023-05-17T23:02:19.879Z,60.34
2023-05-17T23:04:46.697Z,60.47
2023-05-17T23:07:13.370Z,60.39
2023-05-17T23:09:40.039Z,60.39
2023-05-17T23:12:07.691Z,60.51
2023-05-17T23:14:35.332Z,60.57
2023-05-17T23:17:04.364Z,60.58
2023-05-17T23:19:32.411Z,60.80
2023-05-17T23:21:59.212Z,60.17
2023-05-17T23:24:26.036Z,61.04
2023-05-17T23:26:52.744Z,61.28
2023-05-17T23:29:19.416Z,61.36
2023-05-17T23:31:46.176Z,61.41
2023-05-17T23:34:12.919Z,61.36
2023-05-17T23:36:39.541Z,61.45
2023-05-17T23:39:06.274Z,61.60
2023-05-17T23:41:33.049Z,61.58
2023-05-17T23:43:59.624Z,61.71
2023-05-17T23:46:26.419Z,62.01
2023-05-17T23:48:53.078Z,62.15
2023-05-17T23:51:20.209Z,62.34
2023-05-17T23:53:46.941Z,62.50
2023-05-17T23:56:13.691Z,62.62
2023-05-17T23:58:40.415Z,62.67
